createdAt,value
2022-08-18T00:02:38.942Z,10.10
2022-08-18T00:07:47.172Z,11.50
2022-08-18T00:12:49.608Z,11.88
2022-08-18T00:17:52.170Z,11.35
2022-08-18T00:22:54.548Z,12.70
2022-08-18T00:27:56.703Z,12.63
2022-08-18T00:33:00.254Z,11.23
2022-08-18T00:38:05.150Z,10.57
2022-08-18T00:43:12.642Z,11.90
2022-08-18T00:48:15.209Z,11.57
2022-08-18T00:53:29.020Z,10.63
2022-08-18T00:58:36.145Z,11.30
2022-08-18T01:03:39.755Z,13.68
2022-08-18T01:08:42.226Z,13.30
2022-08-18T01:13:45.079Z,11.45
2022-08-18T01:18:47.304Z,13.05
2022-08-18T01:23:52.132Z,12.87
2022-08-18T01:28:54.313Z,17.02
2022-08-18T01:33:56.656Z,15.93
2022-08-18T01:38:58.840Z,17.23
2022-08-18T01:44:02.325Z,17.60
2022-08-18T01:49:05.943Z,17.73
2022-08-18T01:54:14.504Z,18.17
2022-08-18T01:59:16.713Z,16.42
2022-08-18T02:04:36.119Z,16.37
2022-08-18T02:09:40.881Z,16.25
2022-08-18T02:14:43.818Z,16.13
2022-08-18T02:19:47.315Z,15.68
2022-08-18T02:24:51.005Z,16.00
2022-08-18T02:29:53.450Z,20.33
2022-08-18T02:34:55.620Z,21.83
2022-08-18T02:39:58.034Z,23.30
2022-08-18T02:45:00.340Z,23.95
2022-08-18T02:50:02.516Z,24.67
2022-08-18T02:55:05.074Z,25.03
2022-08-18T03:00:08.384Z,25.63
2022-08-18T03:05:14.656Z,25.02
2022-08-18T03:10:32.350Z,24.33
2022-08-18T03:15:36.177Z,23.10
2022-08-18T03:20:38.340Z,23.00
2022-08-18T03:25:48.483Z,22.77
2022-08-18T03:30:50.706Z,22.27
2022-08-18T03:35:52.840Z,21.00
2022-08-18T03:40:55.011Z,19.53
2022-08-18T03:46:01.448Z,20.83
2022-08-18T03:51:15.185Z,21.58
2022-08-18T03:56:20.141Z,21.40
2022-08-18T04:01:27.464Z,20.52
2022-08-18T04:06:37.748Z,20.42
2022-08-18T04:11:42.015Z,19.90
2022-08-18T04:16:45.948Z,20.65
2022-08-18T04:21:52.334Z,19.80
2022-08-18T04:26:56.337Z,20.73
2022-08-18T04:32:01.759Z,19.05
2022-08-18T04:37:04.104Z,18.90
2022-08-18T04:42:06.350Z,18.67
2022-08-18T04:47:09.093Z,20.52
2022-08-18T04:52:37.512Z,19.48
2022-08-18T04:57:34.062Z,18.15
2022-08-18T05:02:37.418Z,19.45
2022-08-18T05:07:46.891Z,19.53
2022-08-18T05:12:49.079Z,19.48
2022-08-18T05:17:51.337Z,18.30
2022-08-18T05:22:53.627Z,18.90
2022-08-18T05:27:55.760Z,17.73
2022-08-18T05:32:57.905Z,18.47
2022-08-18T05:38:12.348Z,17.07
2022-08-18T05:43:16.389Z,17.70
2022-08-18T05:48:19.047Z,15.98
2022-08-18T05:53:21.796Z,16.08
2022-08-18T06:03:58.673Z,14.98
2022-08-18T06:09:17.129Z,13.68
2022-08-18T06:14:19.345Z,13.13
2022-08-18T06:19:34.273Z,12.75
2022-08-18T06:24:59.591Z,12.65
2022-08-18T06:30:12.553Z,11.48
2022-08-18T06:35:33.564Z,11.93
2022-08-18T06:40:35.834Z,11.02
2022-08-18T06:45:41.753Z,11.75
2022-08-18T06:50:52.914Z,11.48
2022-08-18T06:55:55.771Z,10.68
2022-08-18T07:01:01.831Z,9.98
2022-08-18T07:06:10.665Z,11.00
2022-08-18T07:11:28.761Z,10.52
2022-08-18T07:16:56.565Z,10.88
2022-08-18T07:22:17.062Z,12.45
2022-08-18T07:27:23.604Z,10.60
2022-08-18T07:32:41.913Z,10.88
2022-08-18T07:37:56.494Z,9.88
2022-08-18T07:43:03.689Z,9.48
2022-08-18T07:53:57.230Z,9.00
2022-08-18T07:59:10.313Z,8.90
2022-08-18T08:09:52.062Z,8.13
2022-08-18T08:15:07.717Z,7.30
2022-08-18T08:20:43.989Z,7.32
2022-08-18T08:26:10.985Z,7.07
2022-08-18T08:31:37.761Z,7.32
2022-08-18T08:36:43.526Z,7.15
2022-08-18T08:42:29.139Z,6.05
2022-08-18T08:47:42.711Z,4.97
2022-08-18T08:52:51.164Z,5.53
2022-08-18T08:58:08.661Z,5.38
2022-08-18T09:03:18.355Z,5.30
2022-08-18T09:08:51.303Z,4.32
2022-08-18T09:14:12.094Z,4.60
2022-08-18T09:19:41.362Z,4.32
2022-08-18T09:24:50.997Z,3.92
2022-08-18T09:29:59.660Z,3.90
2022-08-18T09:35:23.117Z,3.97
2022-08-18T09:40:38.914Z,4.00
2022-08-18T09:45:58.137Z,3.67
2022-08-18T09:51:35.080Z,3.90
2022-08-18T09:57:05.128Z,3.83
2022-08-18T10:02:18.807Z,4.00
2022-08-18T10:07:43.249Z,3.78
2022-08-18T10:13:08.161Z,2.92
2022-08-18T10:18:37.596Z,3.60
2022-08-18T10:24:02.819Z,2.58
2022-08-18T10:29:28.647Z,2.17
2022-08-18T10:34:36.781Z,2.67
2022-08-18T10:39:41.283Z,2.58
2022-08-18T10:44:47.409Z,2.55
2022-08-18T10:49:50.898Z,2.10
2022-08-18T10:55:24.780Z,1.95
2022-08-18T11:01:07.030Z,2.03
2022-08-18T11:06:21.593Z,1.80
2022-08-18T11:11:37.239Z,1.75
2022-08-18T11:17:00.462Z,1.70
2022-08-18T11:22:02.614Z,1.83
2022-08-18T11:27:17.513Z,2.53
2022-08-18T11:32:28.814Z,2.50
2022-08-18T11:37:56.159Z,2.50
2022-08-18T11:43:24.825Z,2.13
2022-08-18T11:48:32.185Z,2.10
2022-08-18T11:54:00.075Z,2.20
2022-08-18T11:59:04.766Z,2.35
2022-08-18T12:04:09.746Z,1.60
2022-08-18T12:15:10.364Z,1.67
2022-08-18T12:20:19.337Z,1.50
2022-08-18T12:25:25.387Z,1.60
2022-08-18T12:30:27.958Z,1.40
2022-08-18T12:35:30.140Z,1.67
2022-08-18T12:40:33.117Z,1.50
2022-08-18T12:45:37.523Z,1.27
2022-08-18T12:56:03.482Z,1.15
2022-08-18T13:01:05.714Z,1.30
2022-08-18T13:06:07.979Z,1.50
2022-08-18T13:11:14.667Z,1.40
2022-08-18T13:16:30.798Z,1.10
2022-08-18T13:21:41.620Z,1.27
2022-08-18T13:26:47.430Z,1.35
2022-08-18T13:31:55.440Z,1.73
2022-08-18T13:36:59.634Z,1.27
2022-08-18T13:42:26.676Z,1.52
2022-08-18T13:47:26.284Z,1.52
2022-08-18T13:52:34.460Z,1.50
2022-08-18T13:57:39.508Z,1.63
2022-08-18T14:02:42.929Z,1.60
2022-08-18T14:07:46.088Z,1.40
2022-08-18T14:12:48.379Z,1.70
2022-08-18T14:17:52.169Z,1.73
2022-08-18T14:22:57.046Z,1.50
2022-08-18T14:27:59.626Z,2.05
2022-08-18T14:33:11.575Z,2.17
2022-08-18T14:38:14.938Z,2.90
2022-08-18T14:43:20.835Z,2.17
2022-08-18T14:48:27.237Z,2.13
2022-08-18T14:53:32.333Z,1.80
2022-08-18T14:58:36.406Z,1.73
2022-08-18T15:03:41.209Z,1.90
2022-08-18T15:08:45.398Z,2.05
2022-08-18T15:13:49.229Z,1.80
2022-08-18T15:18:51.514Z,1.73
2022-08-18T15:23:58.235Z,1.70
2022-08-18T15:29:00.746Z,1.85
2022-08-18T15:34:12.698Z,1.58
2022-08-18T15:39:15.408Z,1.48
2022-08-18T15:44:20.519Z,1.80
2022-08-18T15:49:23.030Z,1.70
2022-08-18T15:54:25.411Z,1.77
2022-08-18T15:59:33.202Z,1.90
2022-08-18T16:04:45.031Z,1.77
2022-08-18T16:09:47.356Z,1.85
2022-08-18T16:14:49.537Z,1.80
2022-08-18T16:19:51.704Z,1.92
2022-08-18T16:24:55.172Z,1.75
2022-08-18T16:29:57.438Z,1.75
2022-08-18T16:34:59.695Z,1.70
2022-08-18T16:40:01.886Z,1.60
2022-08-18T16:45:05.156Z,1.92
2022-08-18T16:50:17.778Z,1.70
2022-08-18T16:55:20.535Z,1.83
2022-08-18T17:00:24.318Z,1.67
2022-08-18T17:05:26.499Z,1.70
2022-08-18T17:10:28.685Z,2.20
2022-08-18T17:15:31.455Z,2.17
2022-08-18T17:20:36.619Z,2.17
2022-08-18T17:25:39.358Z,1.95
2022-08-18T17:30:51.640Z,2.50
2022-08-18T17:35:55.044Z,2.30
2022-08-18T17:40:57.976Z,2.55
2022-08-18T17:46:14.406Z,2.65
2022-08-18T17:51:21.971Z,3.17
2022-08-18T17:56:35.484Z,2.90
2022-08-18T18:01:38.018Z,2.90
2022-08-18T18:06:42.224Z,3.40
2022-08-18T18:11:45.630Z,3.00
2022-08-18T18:17:00.983Z,3.90
2022-08-18T18:22:08.290Z,3.90
2022-08-18T18:27:37.252Z,3.90
2022-08-18T18:32:50.751Z,3.50
2022-08-18T18:38:05.821Z,4.07
2022-08-18T18:43:34.662Z,4.10
2022-08-18T18:49:03.036Z,4.00
2022-08-18T18:54:22.889Z,4.20
2022-08-18T18:59:38.569Z,4.75
2022-08-18T19:04:54.948Z,4.15
2022-08-18T19:10:03.523Z,4.25
2022-08-18T19:15:13.697Z,3.80
2022-08-18T19:20:20.878Z,4.47
2022-08-18T19:25:28.018Z,3.83
2022-08-18T19:30:33.583Z,4.38
2022-08-18T19:35:51.329Z,4.03
2022-08-18T19:41:10.670Z,4.40
2022-08-18T19:46:28.322Z,4.40
2022-08-18T19:51:36.963Z,4.30
2022-08-18T19:57:09.975Z,5.20
2022-08-18T20:03:00.013Z,4.85
2022-08-18T20:08:09.805Z,4.45
2022-08-18T20:13:33.265Z,4.93
2022-08-18T20:18:37.152Z,4.72
2022-08-18T20:24:05.743Z,4.50
2022-08-18T20:29:10.588Z,5.05
2022-08-18T20:34:14.570Z,5.00
2022-08-18T20:39:46.787Z,4.38
2022-08-18T20:44:48.996Z,4.68
2022-08-18T20:50:00.217Z,4.77
2022-08-18T20:55:27.040Z,4.97
2022-08-18T21:00:35.279Z,4.97
2022-08-18T21:05:40.909Z,5.60
2022-08-18T21:10:53.137Z,5.30
2022-08-18T21:15:55.329Z,5.90
2022-08-18T21:20:59.397Z,8.25
2022-08-18T21:26:08.951Z,7.03
2022-08-18T21:31:44.111Z,7.43
2022-08-18T21:36:53.297Z,7.38
2022-08-18T21:41:57.532Z,8.40
2022-08-18T21:47:27.614Z,9.52
2022-08-18T21:52:31.162Z,9.88
2022-08-18T21:57:58.969Z,9.20
2022-08-18T22:03:15.470Z,9.20
2022-08-18T22:08:20.385Z,8.25
2022-08-18T22:13:25.839Z,9.50
2022-08-18T22:18:38.155Z,9.90
2022-08-18T22:23:46.276Z,10.02
2022-08-18T22:28:56.471Z,9.70
2022-08-18T22:34:02.881Z,8.70
2022-08-18T22:39:11.486Z,8.93
2022-08-18T22:44:13.719Z,10.95
2022-08-18T22:49:17.251Z,9.13
2022-08-18T22:54:21.118Z,9.63
2022-08-18T22:59:25.836Z,10.40
2022-08-18T23:04:29.348Z,11.35
2022-08-18T23:09:33.406Z,11.90
2022-08-18T23:14:41.956Z,9.63
2022-08-18T23:19:44.131Z,11.48
2022-08-18T23:24:46.328Z,11.07
2022-08-18T23:29:48.514Z,10.75
2022-08-18T23:34:52.246Z,10.82
2022-08-18T23:39:54.519Z,11.07
2022-08-18T23:44:56.931Z,11.03
2022-08-18T23:49:59.111Z,9.87
2022-08-18T23:55:11.837Z,7.87
